Airfield :
LOGIN :

Register | Disclaimer

   EN    FR    IT 

 










Legend :    VFR   Marginal VFR   IFR   Intensive IFR   Very Intensive IFR
Visi :
Ceiling :
>= 8 km
>= 3000ft
5 to 8 km
1000 to 3000 ft
1500m to 5 km
500 to 1000 ft
800 to 1500m
200 to 500 ft
< 800m
< 200 ft
Symbols :   Thunderstorms  Fog  Heavy snow  Heavy precipitations  Wind > 20 kt
SIGMETs :     Misc.  Thunderstorms  Icing  Turbulence  Mountain Waves  Volcanic Ashes






- Airport Elevation : 25 ft
- IATA code : QCY


EGXC - RAF Coningsby

CURRENT METAR :
  • 041150Z 23017KT 9999 BKN033 BKN250 19/12 Q1013 NOSIG RMK BLU BLU

EXPIRED METARs :
  • 041120Z 21017KT 9999 FEW026 BKN250 19/12 Q1012 NOSIG RMK BLU BLU
  • 041050Z 21013KT 9999 FEW023 BKN250 18/12 Q1013 RMK BLU
  • 041020Z 21017KT 9999 FEW024 SCT038 BKN250 17/12 Q1013 NOSIG RMK BLU BLU
  • 040950Z 21017KT 9999 FEW022 BKN030 BKN250 17/12 Q1013 NOSIG RMK BLU BLU
  • 040920Z 21015KT 9999 FEW018 SCT032 BKN250 16/12 Q1013 NOSIG RMK BLU BLU

TAF COR TAF EGXC
Valid from the 04 at 12:00 until the 05 at 06:00 UTC


041049Z 0412/0506 21015KT 9999 BKN030
TEMPO 0412/0420 22015G25KT
PROB30
TEMPO 0412/0415 SCT018
TEMPO 0417/0502 BKN020
PROB40
TEMPO 0420/0502 BKN012
PROB30
TEMPO 0423/0506 20015G25KT
BECMG 0505/0506 BKN016



MET'MAP, your aeronautical weather chart ! - Copyright ORBIFLY December 2007 - Disclaimer

ORBIFLY MET'MAP TEAM :

Programming & Development : Alexandra Zaïnal
Original concept : Baudouin d'Aumeries
Technical & hardware support : Manuel Goepfert
Assistance : Marc-Olivier Méhu




SOURCES & CREDITS :

   NOAA